Time;durP1;ratioP1;P1;durP2;ratioP2;P2;SDS_P1;SDS_P2;PMS_P1;PMS_P2;Temp;Humidity;BMP_temperature;BMP_pressure;BME280_temperature;BME280_humidity;BME280_pressure;Samples;Min_cycle;Max_cycle;Signal;HPM_P1;HPM_P2
2022/05/05 00:00:06;;;;;;;7.95;6.53;;;19.10;1.00;;;;;;5052449;28;20036;-61
2022/05/05 00:03:09;;;;;;;8.57;7.68;;;19.10;1.00;;;;;;5051877;28;20484;-61
2022/05/05 00:05:34;;;;;;;8.25;7.45;;;19.10;1.00;;;;;;5067075;28;20036;-61
2022/05/05 00:08:00;;;;;;;7.70;6.70;;;19.10;1.00;;;;;;5049431;28;20021;-60
2022/05/05 00:15:54;;;;;;;9.07;7.72;;;19.00;1.00;;;;;;5052016;28;20040;-61
2022/05/05 00:18:19;;;;;;;9.63;7.90;;;19.00;1.00;;;;;;5052024;28;20370;-61
2022/05/05 00:20:45;;;;;;;9.52;8.05;;;18.90;1.00;;;;;;5050461;28;20059;-60
2022/05/05 00:23:11;;;;;;;10.85;9.15;;;18.90;1.00;;;;;;5052561;28;20074;-61
2022/05/05 00:25:36;;;;;;;11.25;9.52;;;18.80;1.00;;;;;;5050984;28;20056;-61
2022/05/05 00:28:02;;;;;;;11.48;9.07;;;18.80;1.00;;;;;;5067909;28;20052;-61
2022/05/05 00:30:29;;;;;;;10.30;9.25;;;18.80;1.00;;;;;;5066007;28;20041;-60
2022/05/05 00:32:54;;;;;;;9.93;9.02;;;18.70;1.00;;;;;;5052112;28;20029;-61
2022/05/05 00:35:20;;;;;;;11.95;9.52;;;18.70;1.00;;;;;;5051126;28;20044;-60
2022/05/05 00:37:47;;;;;;;11.07;9.52;;;18.70;1.00;;;;;;5051690;28;20040;-61
2022/05/05 00:40:13;;;;;;;10.55;9.52;;;18.70;1.00;;;;;;5051728;28;20478;-60
2022/05/05 00:42:39;;;;;;;13.68;10.68;;;18.70;1.00;;;;;;5050601;28;20135;-60
2022/05/05 00:45:05;;;;;;;14.48;11.98;;;18.80;1.00;;;;;;5052192;28;20513;-60
2022/05/05 00:47:31;;;;;;;16.02;13.45;;;18.60;1.00;;;;;;5050648;28;20113;-60
2022/05/05 00:49:59;;;;;;;15.43;13.75;;;18.60;1.00;;;;;;5051627;28;20478;-61
2022/05/05 00:52:26;;;;;;;16.45;14.60;;;18.60;1.00;;;;;;5045160;28;20033;-60
2022/05/05 00:54:51;;;;;;;16.17;14.48;;;18.70;1.00;;;;;;5032024;28;20479;-61
2022/05/05 00:57:17;;;;;;;17.70;15.07;;;18.70;1.00;;;;;;5048288;28;20040;-60
2022/05/05 01:04:36;;;;;;;17.42;15.55;;;18.70;1.30;;;;;;5050241;28;20071;-61
2022/05/05 01:07:02;;;;;;;17.17;15.38;;;18.70;1.50;;;;;;5049835;28;20079;-61
2022/05/05 01:09:27;;;;;;;18.05;15.73;;;18.70;1.60;;;;;;5050993;28;20033;-61
2022/05/05 01:11:53;;;;;;;17.27;15.43;;;18.70;1.70;;;;;;5051619;28;20112;-61
2022/05/05 01:14:19;;;;;;;16.98;15.05;;;18.60;1.80;;;;;;5050002;28;20490;-60
2022/05/05 01:16:44;;;;;;;20.40;17.13;;;18.70;1.90;;;;;;5049887;28;20025;-61
2022/05/05 01:19:10;;;;;;;18.67;16.15;;;18.70;1.90;;;;;;5048769;28;20478;-61
2022/05/05 01:21:36;;;;;;;16.98;15.38;;;18.70;1.90;;;;;;5047847;28;20036;-61
2022/05/05 01:24:01;;;;;;;17.42;15.57;;;18.70;1.80;;;;;;5049272;28;20167;-61
2022/05/05 01:29:12;;;;;;;17.60;15.35;;;18.70;2.00;;;;;;5052307;28;20222;-61
2022/05/05 01:31:39;;;;;;;16.60;14.98;;;18.70;1.90;;;;;;5053727;28;20033;-61
2022/05/05 01:34:05;;;;;;;16.10;14.18;;;18.70;1.90;;;;;;5053411;28;20048;-61
2022/05/05 01:36:31;;;;;;;17.20;14.45;;;18.70;1.80;;;;;;5052108;28;20029;-61
2022/05/05 01:38:57;;;;;;;15.63;14.02;;;18.70;1.70;;;;;;5054555;28;20036;-62
2022/05/05 01:41:23;;;;;;;16.50;12.40;;;18.70;1.70;;;;;;5050448;28;20053;-61
2022/05/05 01:43:49;;;;;;;14.40;12.02;;;18.70;1.40;;;;;;5054299;28;20130;-61
2022/05/05 01:46:15;;;;;;;13.68;11.23;;;18.70;1.30;;;;;;5053884;28;20498;-62
2022/05/05 01:48:40;;;;;;;11.68;10.57;;;18.70;1.10;;;;;;5055277;28;20049;-61
2022/05/05 01:51:06;;;;;;;12.02;10.82;;;18.70;1.00;;;;;;5053878;28;20020;-61
2022/05/05 01:53:38;;;;;;;11.73;10.57;;;18.70;1.00;;;;;;5053999;28;20096;-61
2022/05/05 01:56:11;;;;;;;10.35;9.32;;;18.70;1.00;;;;;;5054128;28;20524;-61
2022/05/05 01:58:38;;;;;;;12.73;9.60;;;18.70;1.00;;;;;;5055120;28;20048;-61
2022/05/05 02:01:04;;;;;;;11.07;9.18;;;18.70;1.00;;;;;;5050680;28;20021;-61
2022/05/05 02:03:30;;;;;;;12.02;9.15;;;18.70;1.00;;;;;;5054458;28;20043;-61
2022/05/05 02:06:08;;;;;;;8.43;7.55;;;18.70;1.00;;;;;;5051745;28;20033;-61
2022/05/05 02:08:36;;;;;;;8.38;7.43;;;18.70;1.00;;;;;;5055125;28;20028;-61
2022/05/05 02:11:01;;;;;;;8.75;7.93;;;18.70;1.00;;;;;;5054209;28;20564;-61
2022/05/05 02:13:27;;;;;;;8.57;7.30;;;18.70;1.00;;;;;;5054057;28;20112;-61
2022/05/05 02:15:53;;;;;;;8.63;7.03;;;18.60;1.00;;;;;;5053633;28;20043;-61
2022/05/05 02:18:18;;;;;;;7.63;6.85;;;18.70;1.00;;;;;;5054842;28;20025;-61
2022/05/05 02:20:44;;;;;;;7.80;7.00;;;18.60;1.00;;;;;;5053779;28;20032;-61
2022/05/05 02:23:10;;;;;;;8.65;7.80;;;18.60;1.00;;;;;;5054845;28;20028;-61
2022/05/05 02:25:37;;;;;;;8.25;7.45;;;18.60;1.00;;;;;;5052777;28;20454;-61
2022/05/05 02:28:02;;;;;;;8.63;6.90;;;18.60;1.00;;;;;;5064676;28;20049;-61
2022/05/05 02:30:29;;;;;;;8.52;7.38;;;18.60;1.00;;;;;;5054191;28;20453;-61
2022/05/05 02:32:55;;;;;;;8.18;7.28;;;18.50;1.00;;;;;;5054460;28;20083;-61
2022/05/05 02:35:21;;;;;;;8.50;7.70;;;18.50;1.00;;;;;;5052987;28;20044;-62
2022/05/05 02:40:32;;;;;;;8.77;7.68;;;18.50;1.00;;;;;;5054421;28;20052;-62
2022/05/05 02:42:58;;;;;;;8.43;7.07;;;18.50;1.00;;;;;;5054688;28;20404;-61
2022/05/05 02:45:24;;;;;;;8.45;7.13;;;18.50;1.00;;;;;;5053418;28;20436;-61
2022/05/05 02:47:50;;;;;;;8.68;7.75;;;18.50;1.00;;;;;;5052273;28;20025;-62
2022/05/05 02:50:17;;;;;;;8.02;7.20;;;18.40;1.00;;;;;;5053700;28;20114;-62
2022/05/05 02:52:43;;;;;;;9.27;7.50;;;18.50;1.00;;;;;;5053904;28;20441;-62
2022/05/05 02:55:09;;;;;;;8.40;7.30;;;18.30;1.00;;;;;;5053347;28;20041;-62
2022/05/05 02:57:35;;;;;;;8.23;7.38;;;18.30;1.00;;;;;;5054213;28;20032;-61
2022/05/05 03:00:03;;;;;;;8.50;7.43;;;18.30;1.00;;;;;;5052749;28;20087;-62
2022/05/05 03:02:29;;;;;;;8.50;7.22;;;18.30;1.00;;;;;;5056872;28;20079;-62
2022/05/05 03:04:54;;;;;;;9.23;7.55;;;18.30;1.00;;;;;;5051732;28;20033;-61
2022/05/05 03:07:22;;;;;;;10.43;7.70;;;18.30;1.00;;;;;;5051840;28;20043;-62
2022/05/05 03:09:47;;;;;;;8.57;7.60;;;18.30;1.00;;;;;;5053268;28;20064;-62
2022/05/05 03:12:13;;;;;;;9.43;7.40;;;18.40;1.00;;;;;;5053896;28;20443;-61
2022/05/05 03:14:39;;;;;;;8.90;8.00;;;18.40;1.00;;;;;;5053467;28;20045;-62
2022/05/05 03:17:05;;;;;;;9.23;7.53;;;18.40;1.00;;;;;;5052760;28;20066;-62
2022/05/05 03:19:30;;;;;;;8.20;7.32;;;18.40;1.00;;;;;;5053918;28;20112;-62
2022/05/05 03:21:57;;;;;;;7.53;6.65;;;18.30;1.00;;;;;;5052622;28;20423;-62
2022/05/05 03:24:23;;;;;;;9.27;7.72;;;18.20;1.00;;;;;;5053808;28;20009;-61
2022/05/05 03:26:48;;;;;;;9.30;8.35;;;18.30;1.00;;;;;;5052328;28;20031;-61
2022/05/05 03:29:14;;;;;;;7.97;7.07;;;18.30;1.00;;;;;;5053700;28;20074;-62
2022/05/05 03:31:40;;;;;;;8.02;6.53;;;18.20;1.00;;;;;;5052400;28;20451;-62
2022/05/05 03:34:06;;;;;;;8.82;7.93;;;18.30;2.60;;;;;;5053067;28;20048;-61
2022/05/05 03:36:32;;;;;;;8.98;8.07;;;18.30;1.00;;;;;;5052219;28;20051;-62
2022/05/05 03:38:57;;;;;;;9.07;8.02;;;18.20;1.00;;;;;;5033357;28;20029;-62
2022/05/05 03:41:23;;;;;;;11.32;7.13;;;18.20;1.00;;;;;;5045107;28;20035;-61
2022/05/05 03:43:49;;;;;;;9.00;8.10;;;18.20;1.00;;;;;;5050717;28;20028;-61
2022/05/05 03:46:15;;;;;;;8.35;7.47;;;18.10;1.00;;;;;;5049630;28;20435;-62
2022/05/05 03:48:41;;;;;;;7.57;6.78;;;18.20;1.00;;;;;;5045461;28;20040;-62
2022/05/05 03:51:07;;;;;;;7.85;7.00;;;18.20;1.00;;;;;;5051255;28;20040;-62
2022/05/05 03:53:33;;;;;;;7.93;6.97;;;18.20;1.00;;;;;;5047133;28;20028;-61
2022/05/05 03:55:59;;;;;;;10.23;7.20;;;18.30;1.00;;;;;;5052666;28;20056;-61
2022/05/05 03:58:26;;;;;;;8.48;6.80;;;18.10;1.00;;;;;;5049686;28;20028;-61
2022/05/05 04:00:52;;;;;;;8.80;7.30;;;18.00;1.00;;;;;;5050834;28;20036;-61
2022/05/05 04:03:33;;;;;;;8.23;7.18;;;18.00;1.00;;;;;;5051492;28;20104;-61
2022/05/05 04:06:01;;;;;;;9.02;6.82;;;17.90;1.00;;;;;;5050735;28;20032;-61
2022/05/05 04:08:27;;;;;;;7.85;6.78;;;17.90;1.10;;;;;;5049798;28;20033;-61
2022/05/05 04:10:53;;;;;;;8.65;7.43;;;17.90;1.00;;;;;;5048689;28;20032;-61
2022/05/05 04:13:19;;;;;;;9.00;7.30;;;17.90;1.00;;;;;;5048693;28;20407;-61
2022/05/05 04:15:45;;;;;;;8.82;7.35;;;17.90;1.00;;;;;;5050428;28;20119;-60
2022/05/05 04:18:11;;;;;;;8.40;7.50;;;17.90;1.00;;;;;;5047994;28;20108;-61
2022/05/05 04:20:36;;;;;;;9.25;7.68;;;17.90;1.00;;;;;;5050545;28;20112;-62
2022/05/05 04:23:02;;;;;;;8.18;7.40;;;18.00;1.00;;;;;;5049122;28;20033;-62
2022/05/05 04:25:28;;;;;;;7.78;6.95;;;17.90;1.00;;;;;;5046020;28;20047;-61
2022/05/05 04:27:54;;;;;;;10.18;7.72;;;18.00;1.00;;;;;;5049052;28;20029;-61
2022/05/05 04:30:21;;;;;;;10.88;9.25;;;18.00;1.00;;;;;;5046069;28;20405;-60
2022/05/05 04:32:47;;;;;;;9.10;7.80;;;17.90;1.00;;;;;;5047137;28;20442;-62
2022/05/05 04:35:15;;;;;;;10.98;8.82;;;17.80;1.00;;;;;;5050729;28;20064;-61
2022/05/05 04:37:41;;;;;;;9.07;7.90;;;17.90;1.00;;;;;;5052210;28;20021;-61
2022/05/05 04:40:08;;;;;;;10.70;8.75;;;18.10;1.00;;;;;;5034708;28;20037;-61
2022/05/05 04:42:34;;;;;;;11.25;8.57;;;18.10;1.00;;;;;;5040743;28;20018;-61
2022/05/05 04:45:00;;;;;;;11.07;8.63;;;18.00;1.00;;;;;;5033555;28;20029;-61
2022/05/05 04:47:26;;;;;;;11.52;8.57;;;18.00;1.00;;;;;;5065259;28;20044;-61
2022/05/05 04:49:55;;;;;;;10.57;9.18;;;18.00;1.00;;;;;;5050802;28;20025;-61
2022/05/05 04:52:20;;;;;;;10.75;8.75;;;18.00;1.00;;;;;;5039800;28;20029;-61
2022/05/05 04:54:46;;;;;;;10.93;8.75;;;18.00;1.00;;;;;;5052143;28;20395;-61
2022/05/05 04:57:12;;;;;;;9.57;8.43;;;17.90;1.00;;;;;;5050819;28;20448;-61
2022/05/05 04:59:37;;;;;;;11.63;9.40;;;18.00;1.00;;;;;;5051725;28;20055;-61
2022/05/05 05:02:03;;;;;;;11.38;8.57;;;18.00;1.00;;;;;;5047391;28;20028;-61
2022/05/05 05:04:29;;;;;;;10.82;9.80;;;18.00;1.00;;;;;;5051134;28;20025;-60
2022/05/05 05:06:55;;;;;;;9.63;8.40;;;18.00;1.00;;;;;;5051209;28;20025;-61
2022/05/05 05:09:21;;;;;;;12.38;10.50;;;18.10;1.00;;;;;;5063400;28;20128;-61
2022/05/05 05:11:46;;;;;;;12.88;9.95;;;17.90;1.00;;;;;;5050110;28;20029;-61
2022/05/05 05:14:12;;;;;;;12.05;10.23;;;17.90;1.00;;;;;;5051869;28;20470;-61
2022/05/05 05:16:38;;;;;;;11.80;10.48;;;17.90;1.00;;;;;;5048818;28;20037;-61
2022/05/05 05:19:05;;;;;;;13.85;11.48;;;18.00;1.00;;;;;;5051654;28;20056;-60
2022/05/05 05:21:31;;;;;;;12.57;10.50;;;18.00;1.00;;;;;;5050855;28;20074;-61
2022/05/05 05:23:57;;;;;;;13.25;11.25;;;18.10;1.00;;;;;;5036034;28;20206;-61
2022/05/05 05:26:23;;;;;;;15.80;12.93;;;18.10;1.00;;;;;;5049593;28;20108;-60
2022/05/05 05:28:48;;;;;;;17.75;13.18;;;17.90;1.00;;;;;;5051966;28;20121;-61
2022/05/05 05:31:14;;;;;;;16.10;13.02;;;18.10;1.00;;;;;;5050336;28;20025;-61
2022/05/05 05:33:40;;;;;;;15.55;13.23;;;18.00;1.00;;;;;;5047398;28;20032;-61
2022/05/05 05:36:05;;;;;;;17.17;14.68;;;17.90;1.00;;;;;;5050539;28;20033;-61
2022/05/05 05:38:31;;;;;;;16.92;15.13;;;18.00;1.00;;;;;;5051769;28;20028;-61
2022/05/05 05:40:57;;;;;;;16.83;15.07;;;17.90;1.00;;;;;;5049585;28;20068;-61
2022/05/05 05:43:22;;;;;;;21.45;16.20;;;17.90;1.00;;;;;;5051192;28;20061;-61
2022/05/05 05:45:48;;;;;;;18.35;16.38;;;17.90;1.00;;;;;;5050465;28;20055;-61
2022/05/05 05:48:14;;;;;;;17.90;16.15;;;18.00;1.00;;;;;;5050704;28;20048;-61
2022/05/05 05:50:39;;;;;;;17.27;15.48;;;17.90;1.00;;;;;;5050877;28;20036;-62
2022/05/05 05:53:05;;;;;;;19.83;16.98;;;17.90;1.00;;;;;;5050088;28;20137;-61
2022/05/05 05:55:31;;;;;;;19.92;17.33;;;18.00;1.00;;;;;;5049858;28;20167;-61
2022/05/05 05:57:57;;;;;;;20.60;17.42;;;18.10;1.00;;;;;;5051982;28;20470;-62
2022/05/05 06:00:23;;;;;;;19.30;17.00;;;18.00;1.00;;;;;;5050315;28;20033;-60
2022/05/05 06:05:32;;;;;;;19.63;16.17;;;18.00;1.00;;;;;;5035455;28;20098;-61
2022/05/05 06:08:00;;;;;;;19.88;17.40;;;18.00;1.00;;;;;;5050942;28;20119;-61
2022/05/05 06:10:26;;;;;;;19.80;16.85;;;18.10;1.00;;;;;;5049893;28;20410;-60
2022/05/05 06:12:52;;;;;;;19.35;16.98;;;18.10;1.00;;;;;;5050294;28;20482;-60
2022/05/05 06:15:18;;;;;;;22.77;18.23;;;18.10;1.00;;;;;;5052011;28;20072;-60
2022/05/05 06:17:44;;;;;;;18.65;16.60;;;18.20;1.00;;;;;;5053255;28;20052;-60
2022/05/05 06:20:10;;;;;;;20.15;17.92;;;18.20;1.00;;;;;;5054719;28;20435;-61
2022/05/05 06:22:37;;;;;;;20.77;17.52;;;18.20;1.00;;;;;;5053794;28;20028;-61
2022/05/05 06:25:04;;;;;;;24.20;18.80;;;18.20;1.00;;;;;;5053417;28;20059;-60
2022/05/05 06:27:30;;;;;;;19.88;17.85;;;18.20;1.00;;;;;;5053468;28;20048;-60
2022/05/05 06:29:56;;;;;;;20.02;17.88;;;18.20;1.00;;;;;;5069902;28;20071;-61
2022/05/05 06:32:21;;;;;;;22.10;19.27;;;18.30;1.00;;;;;;5051598;28;20048;-62
2022/05/05 06:34:47;;;;;;;21.35;18.70;;;18.30;1.00;;;;;;5043075;28;20047;-61
2022/05/05 06:37:13;;;;;;;22.20;19.00;;;18.20;1.00;;;;;;5052778;28;20029;-61
2022/05/05 06:39:38;;;;;;;21.90;18.15;;;18.40;1.00;;;;;;5051146;28;20339;-61
2022/05/05 06:42:05;;;;;;;20.13;18.10;;;18.40;1.00;;;;;;5051488;28;20025;-62
2022/05/05 06:44:30;;;;;;;21.33;19.05;;;18.40;1.00;;;;;;5052081;28;20047;-62
2022/05/05 06:46:58;;;;;;;21.75;19.42;;;18.40;1.00;;;;;;5050302;28;20049;-62
2022/05/05 06:49:24;;;;;;;23.90;19.38;;;18.50;1.00;;;;;;5054530;28;20110;-63
2022/05/05 06:51:49;;;;;;;22.85;18.92;;;18.50;1.00;;;;;;5052783;28;20434;-61
2022/05/05 06:54:16;;;;;;;23.55;20.25;;;18.50;1.00;;;;;;5050633;28;20090;-62
2022/05/05 06:56:41;;;;;;;21.88;19.58;;;18.60;1.00;;;;;;5054391;28;20029;-62
2022/05/05 06:59:07;;;;;;;22.92;19.92;;;18.60;1.00;;;;;;5052444;28;20035;-62
2022/05/05 07:07:01;;;;;;;22.27;19.83;;;18.80;1.00;;;;;;5048567;28;20513;-63
2022/05/05 07:12:10;;;;;;;21.73;19.38;;;18.60;1.00;;;;;;5051312;28;20040;-63
2022/05/05 07:14:36;;;;;;;22.73;19.83;;;18.70;1.00;;;;;;5051815;28;20036;-63
2022/05/05 07:17:02;;;;;;;27.98;21.38;;;18.70;1.00;;;;;;5052173;28;20368;-63
2022/05/05 07:19:27;;;;;;;24.98;20.95;;;18.70;1.00;;;;;;5049556;28;20029;-63
2022/05/05 07:21:53;;;;;;;23.17;19.45;;;18.60;1.00;;;;;;5051554;28;20107;-63
2022/05/05 07:24:19;;;;;;;23.50;19.33;;;18.70;1.00;;;;;;5051602;28;20372;-63
2022/05/05 07:26:44;;;;;;;24.63;19.90;;;18.70;1.00;;;;;;5051656;28;20036;-62
2022/05/05 07:32:32;;;;;;;25.08;21.23;;;18.80;1.00;;;;;;5050070;28;20031;-62
2022/05/05 07:34:57;;;;;;;24.40;21.92;;;18.80;1.00;;;;;;5051420;28;20041;-62
2022/05/05 07:37:23;;;;;;;26.92;23.08;;;18.80;1.00;;;;;;5068120;28;20039;-62
2022/05/05 07:39:48;;;;;;;26.00;21.92;;;18.90;1.00;;;;;;5049129;28;20036;-62
2022/05/05 07:42:14;;;;;;;26.05;22.73;;;18.90;1.00;;;;;;5044297;28;20029;-62
2022/05/05 07:44:40;;;;;;;27.23;22.65;;;18.90;1.00;;;;;;5051716;28;20115;-63
2022/05/05 07:47:05;;;;;;;26.30;23.35;;;18.80;1.00;;;;;;5052006;28;20148;-62
2022/05/05 07:49:31;;;;;;;29.33;26.00;;;18.90;1.00;;;;;;5041665;28;20029;-62
2022/05/05 07:51:57;;;;;;;30.23;22.67;;;18.90;1.00;;;;;;5032635;28;20052;-62
2022/05/05 07:54:34;;;;;;;28.73;24.50;;;18.90;1.00;;;;;;5045846;28;20051;-62
2022/05/05 07:57:00;;;;;;;26.02;23.33;;;18.80;1.00;;;;;;5052552;28;20031;-62
2022/05/05 07:59:36;;;;;;;25.15;21.85;;;19.00;1.00;;;;;;5049660;28;20090;-62
2022/05/05 08:02:03;;;;;;;25.67;21.77;;;18.90;1.00;;;;;;5052291;28;20075;-62
2022/05/05 08:04:29;;;;;;;24.70;22.23;;;18.80;1.00;;;;;;5051861;28;20453;-62
2022/05/05 08:06:55;;;;;;;23.60;21.30;;;18.80;1.00;;;;;;5052557;28;20025;-62
2022/05/05 08:09:21;;;;;;;25.02;22.35;;;18.90;1.00;;;;;;5050647;28;20039;-62
2022/05/05 08:11:46;;;;;;;23.55;21.17;;;18.90;1.00;;;;;;5052428;28;20151;-62
2022/05/05 08:14:12;;;;;;;23.70;21.27;;;18.90;1.00;;;;;;5049859;28;20036;-62
2022/05/05 08:16:39;;;;;;;23.67;20.83;;;19.10;1.00;;;;;;5050660;28;20029;-62
2022/05/05 08:19:11;;;;;;;25.92;23.15;;;19.00;1.00;;;;;;5048430;28;20039;-62
2022/05/05 08:21:38;;;;;;;28.27;22.33;;;19.00;1.00;;;;;;5050173;28;20025;-62
2022/05/05 08:30:10;;;;;;;25.95;23.17;;;19.10;1.00;;;;;;5047279;28;20039;-63
2022/05/05 08:32:36;;;;;;;27.83;24.42;;;19.00;1.00;;;;;;5047813;28;20037;-63
2022/05/05 08:35:03;;;;;;;26.13;23.45;;;19.00;1.00;;;;;;5054679;28;20041;-63
2022/05/05 08:37:29;;;;;;;30.02;23.67;;;19.00;1.00;;;;;;5052036;28;20032;-63
2022/05/05 08:39:55;;;;;;;25.55;22.73;;;19.30;1.00;;;;;;5047855;28;20033;-63
2022/05/05 08:42:20;;;;;;;31.15;22.70;;;19.20;1.00;;;;;;5049841;28;20412;-64
2022/05/05 08:44:46;;;;;;;27.40;23.27;;;19.20;1.00;;;;;;5059345;28;20112;-62
2022/05/05 08:47:16;;;;;;;29.02;25.50;;;19.20;1.00;;;;;;5050332;28;20184;-63
2022/05/05 08:49:43;;;;;;;28.02;23.30;;;19.30;1.00;;;;;;5047621;28;20078;-63
2022/05/05 08:52:11;;;;;;;31.02;24.98;;;19.20;1.00;;;;;;5050067;28;20029;-62
2022/05/05 08:54:39;;;;;;;23.55;21.23;;;19.20;1.00;;;;;;5041988;28;20053;-62
2022/05/05 08:57:06;;;;;;;25.15;22.50;;;19.30;1.00;;;;;;5041577;28;20025;-63
2022/05/05 08:59:31;;;;;;;25.27;22.77;;;19.40;1.00;;;;;;5050138;28;20501;-62
2022/05/05 09:01:57;;;;;;;25.77;22.08;;;19.50;1.00;;;;;;5050034;28;20020;-62
2022/05/05 09:04:23;;;;;;;27.17;22.20;;;19.50;1.00;;;;;;5064418;28;20447;-62
2022/05/05 09:06:53;;;;;;;26.42;21.73;;;19.60;1.00;;;;;;5051381;28;20061;-62
2022/05/05 09:09:34;;;;;;;23.67;21.00;;;19.50;1.00;;;;;;5051337;28;20106;-63
2022/05/05 09:12:20;;;;;;;23.25;20.88;;;19.70;1.00;;;;;;5051998;28;20044;-62
2022/05/05 09:14:51;;;;;;;27.95;22.33;;;19.60;1.00;;;;;;5050365;28;20122;-62
2022/05/05 09:17:27;;;;;;;22.38;19.98;;;19.60;1.00;;;;;;5040822;28;20116;-63
2022/05/05 09:19:54;;;;;;;23.90;21.42;;;19.60;1.00;;;;;;5045119;28;20033;-62
2022/05/05 09:22:22;;;;;;;25.52;21.98;;;19.60;1.00;;;;;;5044256;28;20021;-62
2022/05/05 09:24:50;;;;;;;22.85;20.45;;;19.70;1.00;;;;;;5043541;28;20029;-63
2022/05/05 09:27:16;;;;;;;23.17;20.63;;;19.60;1.00;;;;;;5037691;28;20030;-62
2022/05/05 09:29:54;;;;;;;24.23;21.65;;;19.40;1.00;;;;;;5047820;28;20140;-63
2022/05/05 09:32:20;;;;;;;24.35;21.77;;;19.50;1.00;;;;;;5048776;28;20055;-62
2022/05/05 09:34:45;;;;;;;23.63;21.15;;;19.50;1.00;;;;;;5043311;28;20398;-62
2022/05/05 09:37:18;;;;;;;22.55;20.15;;;19.50;1.00;;;;;;5047410;28;20025;-62
2022/05/05 09:39:44;;;;;;;24.20;21.02;;;19.50;1.00;;;;;;5034893;28;20050;-62
2022/05/05 09:42:09;;;;;;;26.33;20.95;;;19.50;1.00;;;;;;5043454;28;20085;-62
2022/05/05 09:44:44;;;;;;;25.27;22.52;;;19.60;1.00;;;;;;5048321;28;20120;-63
2022/05/05 09:47:15;;;;;;;24.40;21.85;;;19.50;1.00;;;;;;5050666;28;20044;-63
2022/05/05 09:49:40;;;;;;;25.20;20.92;;;19.50;1.00;;;;;;5048204;28;20398;-61
2022/05/05 09:57:41;;;;;;;21.90;19.80;;;19.60;1.00;;;;;;5050337;28;20067;-62
2022/05/05 10:05:37;;;;;;;22.88;20.48;;;19.70;1.00;;;;;;5053830;28;20117;-62
2022/05/05 10:08:03;;;;;;;24.30;21.33;;;19.70;1.00;;;;;;5054483;28;20116;-61
2022/05/05 10:10:29;;;;;;;23.60;21.13;;;19.80;1.00;;;;;;5053327;28;20096;-62
2022/05/05 10:12:57;;;;;;;23.42;19.40;;;19.90;1.00;;;;;;5054835;28;20060;-62
2022/05/05 10:15:24;;;;;;;23.10;20.65;;;19.80;1.00;;;;;;5053448;28;20454;-62
2022/05/05 10:17:51;;;;;;;25.95;20.75;;;19.80;1.00;;;;;;5055065;28;20075;-61
2022/05/05 10:20:18;;;;;;;24.05;21.45;;;19.80;1.00;;;;;;5053761;28;20044;-62
2022/05/05 10:23:14;;;;;;;24.85;21.17;;;19.80;1.00;;;;;;5053801;28;20095;-62
2022/05/05 10:25:40;;;;;;;24.23;21.50;;;19.90;1.00;;;;;;5048016;28;20029;-62
2022/05/05 10:28:39;;;;;;;23.67;21.13;;;19.80;1.00;;;;;;5047977;28;20044;-62
2022/05/05 10:31:13;;;;;;;23.50;20.70;;;19.90;1.00;;;;;;5046762;28;20037;-62
2022/05/05 10:34:07;;;;;;;24.23;21.73;;;19.90;1.00;;;;;;5047495;28;20029;-62
2022/05/05 10:36:35;;;;;;;23.70;21.20;;;19.90;1.00;;;;;;5050095;28;20029;-62
2022/05/05 10:39:16;;;;;;;24.63;21.92;;;19.90;1.00;;;;;;5049703;28;20025;-62
2022/05/05 10:41:42;;;;;;;24.48;21.00;;;20.00;1.00;;;;;;5049778;28;20458;-62
2022/05/05 10:44:16;;;;;;;23.30;20.90;;;20.10;1.00;;;;;;5051841;28;20100;-61
2022/05/05 10:46:51;;;;;;;;;;;20.10;1.00;;;;;;5053197;28;20052;-62
2022/05/05 10:49:35;;;;;;;27.05;24.33;;;20.00;1.00;;;;;;5052524;28;19908;-63
2022/05/05 10:52:10;;;;;;;23.55;20.60;;;20.10;1.00;;;;;;5048325;28;20494;-62
2022/05/05 10:54:40;;;;;;;26.25;23.42;;;20.10;1.00;;;;;;5049566;28;20410;-62
2022/05/05 10:57:27;;;;;;;24.85;22.23;;;20.10;1.20;;;;;;5047331;28;20021;-62
2022/05/05 11:00:12;;;;;;;24.63;22.10;;;20.30;1.90;;;;;;5049891;28;20072;-63
2022/05/05 11:03:02;;;;;;;27.23;22.60;;;20.30;2.50;;;;;;5051128;28;20065;-63
2022/05/05 11:05:31;;;;;;;23.63;21.27;;;20.30;2.60;;;;;;5050738;28;20520;-63
2022/05/05 11:08:07;;;;;;;24.88;22.30;;;20.20;2.80;;;;;;5052400;28;20033;-63
2022/05/05 11:11:52;;;;;;;25.25;22.70;;;20.20;3.10;;;;;;5052262;28;20037;-63
2022/05/05 11:13:48;;;;;;;23.77;21.48;;;20.20;1.50;;;;;;5043927;28;20049;-62
2022/05/05 11:22:07;;;;;;;25.83;23.40;;;20.40;1.00;;;;;;5046435;28;20082;-63
2022/05/05 11:24:33;;;;;;;25.38;22.85;;;20.40;1.00;;;;;;5048392;28;20078;-63
2022/05/05 11:27:00;;;;;;;29.48;25.48;;;20.30;1.00;;;;;;5049522;28;20025;-62
2022/05/05 11:29:30;;;;;;;24.85;22.30;;;20.20;1.00;;;;;;5054474;28;20029;-62
2022/05/05 11:32:05;;;;;;;26.38;22.15;;;20.30;1.00;;;;;;5048090;28;20183;-62
2022/05/05 11:34:36;;;;;;;25.77;23.05;;;20.30;1.00;;;;;;5050162;28;20490;-63
2022/05/05 11:37:04;;;;;;;25.92;23.30;;;20.30;1.00;;;;;;5049172;28;20032;-63
2022/05/05 11:39:31;;;;;;;24.45;21.95;;;20.30;1.00;;;;;;5053382;28;20540;-63
2022/05/05 11:41:58;;;;;;;29.40;24.38;;;20.40;1.00;;;;;;5051031;28;20032;-63
2022/05/05 11:44:25;;;;;;;30.20;27.10;;;20.40;1.00;;;;;;5050974;28;20033;-63
2022/05/05 11:46:53;;;;;;;27.65;24.70;;;20.30;1.00;;;;;;5052467;28;20056;-63
2022/05/05 11:49:19;;;;;;;26.85;24.13;;;20.40;1.00;;;;;;5051533;28;20120;-62
2022/05/05 11:51:45;;;;;;;27.38;24.45;;;20.40;1.00;;;;;;5048660;28;20469;-62
2022/05/05 11:54:14;;;;;;;27.95;23.92;;;20.40;1.00;;;;;;5067297;28;20137;-62
2022/05/05 11:56:49;;;;;;;27.85;25.02;;;20.40;1.00;;;;;;5050517;28;20360;-63
2022/05/05 12:02:04;;;;;;;29.55;26.60;;;20.40;1.00;;;;;;5048846;28;20082;-63
2022/05/05 12:04:30;;;;;;;29.58;26.60;;;20.40;1.00;;;;;;5052013;28;20029;-63
2022/05/05 12:06:58;;;;;;;30.00;27.10;;;20.40;1.00;;;;;;5050737;28;20389;-63
2022/05/05 12:09:24;;;;;;;29.35;25.98;;;20.30;1.00;;;;;;5051370;28;20033;-63
2022/05/05 12:11:49;;;;;;;29.83;26.55;;;20.40;1.00;;;;;;5049207;28;20048;-63
2022/05/05 12:14:18;;;;;;;30.55;26.73;;;20.40;1.00;;;;;;5050902;28;20440;-63
2022/05/05 12:16:44;;;;;;;28.70;25.45;;;20.40;1.00;;;;;;5050076;28;20116;-62
2022/05/05 12:19:14;;;;;;;31.20;26.80;;;20.40;1.00;;;;;;5064805;28;20049;-62
2022/05/05 12:21:53;;;;;;;28.50;25.63;;;20.40;1.00;;;;;;5050972;28;20021;-63
2022/05/05 12:24:22;;;;;;;30.20;26.50;;;20.40;1.00;;;;;;5040062;28;20034;-63
2022/05/05 12:26:48;;;;;;;32.03;27.10;;;20.40;1.00;;;;;;5047895;28;20025;-63
2022/05/05 12:29:15;;;;;;;28.15;25.20;;;20.40;1.00;;;;;;5050781;28;20198;-63
2022/05/05 12:31:57;;;;;;;29.23;26.27;;;20.40;1.00;;;;;;5051292;28;20412;-63
2022/05/05 12:34:25;;;;;;;28.42;25.63;;;20.40;1.00;;;;;;5052307;28;20445;-63
2022/05/05 12:37:15;;;;;;;30.42;27.13;;;20.40;1.00;;;;;;5048321;28;20025;-63
2022/05/05 12:39:57;;;;;;;30.83;27.73;;;20.40;1.00;;;;;;5048904;28;20482;-63
2022/05/05 12:42:24;;;;;;;29.65;26.58;;;20.40;1.00;;;;;;5048913;28;20135;-63
2022/05/05 12:44:51;;;;;;;29.85;26.83;;;20.30;1.00;;;;;;5052212;28;20037;-63
2022/05/05 12:47:25;;;;;;;29.75;26.33;;;20.40;1.00;;;;;;5043526;28;20052;-62
2022/05/05 12:49:51;;;;;;;30.10;26.83;;;20.40;1.00;;;;;;5045630;28;20033;-62
2022/05/05 13:00:52;;;;;;;37.22;29.27;;;20.20;1.00;;;;;;5048827;28;20119;-62
2022/05/05 13:03:18;;;;;;;39.97;34.15;;;20.10;1.00;;;;;;5048157;28;20072;-63
2022/05/05 13:05:46;;;;;;;41.83;34.05;;;20.10;1.10;;;;;;5047506;28;20134;-63
2022/05/05 13:08:12;;;;;;;40.42;36.08;;;19.40;10.50;;;;;;5046827;28;20581;-63
2022/05/05 13:10:38;;;;;;;41.53;37.42;;;19.10;15.30;;;;;;5050317;28;20066;-63
2022/05/05 13:13:04;;;;;;;42.45;37.88;;;18.80;17.00;;;;;;5049525;28;20037;-62
2022/05/05 13:15:29;;;;;;;39.55;35.53;;;18.70;15.50;;;;;;5049707;28;20557;-62
2022/05/05 13:17:55;;;;;;;37.35;33.60;;;18.80;16.10;;;;;;5049171;28;20429;-63
2022/05/05 13:20:21;;;;;;;22.67;20.08;;;18.80;16.90;;;;;;5049317;28;20112;-63
2022/05/05 13:22:46;;;;;;;14.95;13.07;;;18.50;17.40;;;;;;5049926;28;20366;-61
2022/05/05 13:25:12;;;;;;;14.90;13.13;;;18.30;15.90;;;;;;5050547;28;20032;-62
2022/05/05 13:27:38;;;;;;;15.32;13.73;;;18.50;15.80;;;;;;5035875;28;20021;-62
2022/05/05 13:30:05;;;;;;;12.48;9.65;;;18.60;15.80;;;;;;5055299;28;20498;-64
2022/05/05 13:32:31;;;;;;;14.23;8.70;;;18.60;15.60;;;;;;5070581;28;20040;-63
2022/05/05 13:34:56;;;;;;;8.10;7.40;;;18.60;14.30;;;;;;5068945;28;20502;-64
2022/05/05 13:37:22;;;;;;;6.95;6.25;;;18.70;13.40;;;;;;5053569;28;20029;-63
2022/05/05 13:39:48;;;;;;;8.13;6.05;;;18.80;12.70;;;;;;5053769;28;20597;-64
2022/05/05 13:42:14;;;;;;;6.82;5.13;;;18.70;12.00;;;;;;5054649;28;20108;-64
2022/05/05 13:44:40;;;;;;;7.20;5.07;;;18.60;11.40;;;;;;5054489;28;20060;-64
2022/05/05 13:47:06;;;;;;;8.48;6.53;;;18.60;11.00;;;;;;5061994;28;20483;-63
2022/05/05 13:49:31;;;;;;;7.05;5.80;;;18.70;11.10;;;;;;5053811;28;20037;-63